Atlantic Beach, South Carolina
Current Conditions -  °F | °C
As of 6:53 PM on Monday 20 Oct 2014 (Local Time) from KCRE Reporting Station
Few Clouds Few Clouds  
Wind Chill: 69°   Ceiling: Unl
Heat Index: 69°   Visibility: 10mi
Dew Point: 58°   Wind: 5mph
Humidity: 68%   Direction: 150°SSE
Pressure: 30"   Gusts: NA
Location:  33.8371°N, 78.6471°W
Report Text: KCRE 202253Z 15004KT 10SM FEW045 21/14 A3000 RMK AO1 SLP160 T02060144
Loading
Personal Weather Stations






























Interactive Weather Map
Tropical Storm Tracking
New forecast layout! Learn more

10-Day Weather Forecast

Advertisements
Track Severe Weather on mobile